createdAt,value
2018-05-02T00:00:12.158Z,8.8
2018-05-02T00:01:15.148Z,8.8
2018-05-02T00:02:17.445Z,8.8
2018-05-02T00:03:19.565Z,8.8
2018-05-02T00:04:21.794Z,8.8
2018-05-02T00:05:24.092Z,8.8
2018-05-02T00:06:26.481Z,8.8
2018-05-02T00:07:28.757Z,8.7
2018-05-02T00:08:30.886Z,8.8
2018-05-02T00:09:33.563Z,8.8
2018-05-02T00:10:36.867Z,8.8
2018-05-02T00:11:38.950Z,8.8
2018-05-02T00:12:41.696Z,8.7
2018-05-02T00:13:43.982Z,8.7
2018-05-02T00:14:46.859Z,8.7
2018-05-02T00:15:49.399Z,8.8
2018-05-02T00:16:51.653Z,8.7
2018-05-02T00:17:53.788Z,8.7
2018-05-02T00:18:55.923Z,8.7
2018-05-02T00:19:58.077Z,8.6
2018-05-02T00:21:00.593Z,8.7
2018-05-02T00:22:03.584Z,8.6
2018-05-02T00:23:05.800Z,8.6
2018-05-02T00:24:08.060Z,8.6
2018-05-02T00:25:12.401Z,8.6
2018-05-02T00:26:16.536Z,8.5
2018-05-02T00:27:18.611Z,8.5
2018-05-02T00:28:21.130Z,8.4
2018-05-02T00:29:23.511Z,8.5
2018-05-02T00:30:25.759Z,8.4
2018-05-02T00:31:28.089Z,8.4
2018-05-02T00:32:31.023Z,8.4
2018-05-02T00:33:33.183Z,8.4
2018-05-02T00:34:35.320Z,8.4
2018-05-02T00:35:37.509Z,8.3
2018-05-02T00:36:39.945Z,8.3
2018-05-02T00:37:42.121Z,8.3
2018-05-02T00:38:44.414Z,8.3
2018-05-02T00:39:46.743Z,8.3
2018-05-02T00:40:49.046Z,8.3
2018-05-02T00:41:51.382Z,8.2
2018-05-02T00:42:54.028Z,8.2
2018-05-02T00:43:56.173Z,8.2
2018-05-02T00:44:58.546Z,8.3
2018-05-02T00:46:00.875Z,8.2
2018-05-02T00:47:03.288Z,8.2
2018-05-02T00:48:05.572Z,8.2
2018-05-02T00:49:07.813Z,8.2
2018-05-02T00:50:10.042Z,8.2
2018-05-02T00:51:12.203Z,8.2
2018-05-02T00:52:14.369Z,8.2
2018-05-02T00:53:16.910Z,8.1
2018-05-02T00:54:19.032Z,8.1
2018-05-02T00:55:21.279Z,8.1
2018-05-02T00:56:23.492Z,8.1
2018-05-02T00:57:25.784Z,8.1
2018-05-02T00:58:28.310Z,8.1
2018-05-02T00:59:30.619Z,8.2
2018-05-02T01:00:32.717Z,8.1
2018-05-02T01:01:35.012Z,8.1
2018-05-02T01:02:37.732Z,8.0
2018-05-02T01:03:40.043Z,8.0
2018-05-02T01:04:42.492Z,8.0
2018-05-02T01:05:44.998Z,8.1
2018-05-02T01:06:47.233Z,8.0
2018-05-02T01:07:49.487Z,8.1
2018-05-02T01:08:52.101Z,8.0
2018-05-02T01:09:54.405Z,8.1
2018-05-02T01:10:56.645Z,8.1
2018-05-02T01:11:58.879Z,8.1
2018-05-02T01:13:01.121Z,8.0
2018-05-02T01:14:03.524Z,8.1
2018-05-02T01:15:05.786Z,8.2
2018-05-02T01:16:09.755Z,8.1
2018-05-02T01:17:11.897Z,8.2
2018-05-02T01:18:14.215Z,8.1
2018-05-02T01:19:16.475Z,8.1
2018-05-02T01:20:18.860Z,8.1
2018-05-02T01:21:21.161Z,8.1
2018-05-02T01:22:23.351Z,8.1
2018-05-02T01:23:25.568Z,8.1
2018-05-02T01:24:27.648Z,8.0
2018-05-02T01:25:29.974Z,8.0
2018-05-02T01:26:32.201Z,8.0
2018-05-02T01:27:34.543Z,8.0
2018-05-02T01:28:36.767Z,8.0
2018-05-02T01:29:39.014Z,8.1
2018-05-02T01:30:41.098Z,8.0
2018-05-02T01:31:43.192Z,8.1
2018-05-02T01:32:45.458Z,8.2
2018-05-02T01:33:47.729Z,8.2
2018-05-02T01:34:50.158Z,8.1
2018-05-02T01:35:52.425Z,8.2
2018-05-02T01:36:54.645Z,8.2
2018-05-02T01:37:57.008Z,8.3
2018-05-02T01:38:59.908Z,8.3
2018-05-02T01:40:02.187Z,8.2
2018-05-02T01:41:04.440Z,8.2
2018-05-02T01:42:06.755Z,8.2
2018-05-02T01:43:10.317Z,8.2
2018-05-02T01:44:12.472Z,8.3
2018-05-02T01:45:14.812Z,8.2
2018-05-02T01:46:17.353Z,8.3
2018-05-02T01:47:19.567Z,8.3
2018-05-02T01:48:21.743Z,8.3
2018-05-02T01:49:23.901Z,8.3
2018-05-02T01:50:26.075Z,8.3
2018-05-02T01:51:29.037Z,8.3
2018-05-02T01:52:31.564Z,8.2
2018-05-02T01:53:34.425Z,8.2
2018-05-02T01:54:36.638Z,8.2
2018-05-02T01:55:38.993Z,8.2
2018-05-02T01:56:41.209Z,8.2
2018-05-02T01:57:43.634Z,8.2
2018-05-02T01:58:45.757Z,8.1
2018-05-02T01:59:48.020Z,8.0
2018-05-02T02:00:50.248Z,8.1
2018-05-02T02:01:53.239Z,8.1
2018-05-02T02:02:56.424Z,8.1
2018-05-02T02:03:59.000Z,8.0
2018-05-02T02:05:01.244Z,7.9
2018-05-02T02:06:03.292Z,7.9
2018-05-02T02:07:05.663Z,8.0
2018-05-02T02:08:08.010Z,8.0
2018-05-02T02:09:10.430Z,8.1
2018-05-02T02:10:12.888Z,7.9
2018-05-02T02:11:15.820Z,8.0
2018-05-02T02:12:18.794Z,8.0
2018-05-02T02:13:21.424Z,8.0
2018-05-02T02:14:24.241Z,7.9
2018-05-02T02:15:26.466Z,7.9
2018-05-02T02:16:28.651Z,8.0
2018-05-02T02:17:30.993Z,7.9
2018-05-02T02:18:33.708Z,7.8
2018-05-02T02:19:36.010Z,7.8
2018-05-02T02:20:38.853Z,7.8
2018-05-02T02:21:41.818Z,7.7
2018-05-02T02:22:43.981Z,7.8
2018-05-02T02:23:46.607Z,7.8
2018-05-02T02:24:49.172Z,7.7
2018-05-02T02:25:51.405Z,7.8
2018-05-02T02:26:53.762Z,7.7
2018-05-02T02:27:56.404Z,7.7
2018-05-02T02:28:58.803Z,7.7
2018-05-02T02:30:01.250Z,7.8
2018-05-02T02:31:04.021Z,7.7
2018-05-02T02:32:08.545Z,7.7
2018-05-02T02:33:10.786Z,7.7
2018-05-02T02:34:13.045Z,7.7
2018-05-02T02:35:15.611Z,7.7
2018-05-02T02:36:17.893Z,7.7
2018-05-02T02:37:20.289Z,7.7
2018-05-02T02:38:22.783Z,7.6
2018-05-02T02:39:25.080Z,7.7
2018-05-02T02:40:27.462Z,7.7
2018-05-02T02:41:30.137Z,7.6
2018-05-02T02:42:32.476Z,7.6
2018-05-02T02:43:35.469Z,7.6
2018-05-02T02:44:37.789Z,7.6
2018-05-02T02:45:40.987Z,7.5
2018-05-02T02:46:43.364Z,7.5
2018-05-02T02:47:45.408Z,7.5
2018-05-02T02:48:47.579Z,7.4
2018-05-02T02:49:49.907Z,7.5
2018-05-02T02:50:51.964Z,7.5
2018-05-02T02:51:54.460Z,7.5
2018-05-02T02:52:57.501Z,7.5
2018-05-02T02:53:59.795Z,7.5
2018-05-02T02:55:03.050Z,7.5
2018-05-02T02:56:05.310Z,7.5
2018-05-02T02:57:07.597Z,7.5
2018-05-02T02:58:09.751Z,7.5
2018-05-02T02:59:11.859Z,7.6
2018-05-02T03:00:14.129Z,7.7
2018-05-02T03:01:16.861Z,7.7
2018-05-02T03:02:20.187Z,7.7
2018-05-02T03:03:22.197Z,7.7
2018-05-02T03:04:25.319Z,7.7
2018-05-02T03:05:28.055Z,7.7
2018-05-02T03:06:30.528Z,7.7
2018-05-02T03:07:33.008Z,7.6
2018-05-02T03:08:36.168Z,7.7
2018-05-02T03:09:38.372Z,7.6
2018-05-02T03:10:40.828Z,7.6
2018-05-02T03:11:43.192Z,7.6
2018-05-02T03:12:45.461Z,7.5
2018-05-02T03:13:48.421Z,7.5
2018-05-02T03:14:50.856Z,7.5
2018-05-02T03:15:53.405Z,7.6
2018-05-02T03:16:55.679Z,7.6
2018-05-02T03:17:58.200Z,7.5
2018-05-02T03:19:00.863Z,7.6
2018-05-02T03:20:04.063Z,7.5
2018-05-02T03:21:08.082Z,7.5
2018-05-02T03:22:11.208Z,7.5
2018-05-02T03:23:13.339Z,7.6
2018-05-02T03:24:15.877Z,7.5
2018-05-02T03:25:18.454Z,7.5
2018-05-02T03:26:20.912Z,7.6
2018-05-02T03:27:23.637Z,7.5
2018-05-02T03:28:25.892Z,7.5
2018-05-02T03:29:28.733Z,7.5
2018-05-02T03:30:30.850Z,7.6
2018-05-02T03:31:33.124Z,7.6
2018-05-02T03:32:35.580Z,7.5
2018-05-02T03:33:37.659Z,7.4
2018-05-02T03:34:39.821Z,7.4
2018-05-02T03:35:41.941Z,7.5
2018-05-02T03:36:44.563Z,7.4
2018-05-02T03:37:46.832Z,7.5
2018-05-02T03:38:49.020Z,7.3
2018-05-02T03:39:51.434Z,7.3
2018-05-02T03:40:53.599Z,7.3
2018-05-02T03:41:56.426Z,7.4
2018-05-02T03:42:58.562Z,7.3
2018-05-02T03:44:01.113Z,7.3
2018-05-02T03:45:03.291Z,7.3
2018-05-02T03:46:05.798Z,7.3
2018-05-02T03:47:08.543Z,7.3
2018-05-02T03:48:10.833Z,7.3
2018-05-02T03:49:13.002Z,7.3
2018-05-02T03:50:15.420Z,7.2
2018-05-02T03:51:17.898Z,7.2
2018-05-02T03:52:20.260Z,7.2
2018-05-02T03:53:22.445Z,7.2
2018-05-02T03:54:24.888Z,7.2
2018-05-02T03:55:27.257Z,7.2
2018-05-02T03:56:29.428Z,7.2
2018-05-02T03:57:32.916Z,7.3
2018-05-02T03:58:35.373Z,7.1
2018-05-02T03:59:37.649Z,7.1
2018-05-02T04:00:39.777Z,7.0
2018-05-02T04:01:42.197Z,7.0
2018-05-02T04:02:44.399Z,7.0
2018-05-02T04:03:47.093Z,7.0
2018-05-02T04:04:49.790Z,7.1
2018-05-02T04:05:52.052Z,7.0
2018-05-02T04:06:55.145Z,7.0
2018-05-02T04:07:57.227Z,6.9
2018-05-02T04:08:59.505Z,7.0
2018-05-02T04:10:01.737Z,6.9
2018-05-02T04:11:04.778Z,7.0
2018-05-02T04:12:07.200Z,6.9
2018-05-02T04:13:09.406Z,7.0
2018-05-02T04:14:11.684Z,7.0
2018-05-02T04:15:13.945Z,6.9
2018-05-02T04:16:16.233Z,6.9
2018-05-02T04:17:19.098Z,6.9
2018-05-02T04:18:21.371Z,6.9
2018-05-02T04:19:23.620Z,7.1
2018-05-02T04:20:25.996Z,7.1
2018-05-02T04:21:28.463Z,7.1
2018-05-02T04:22:30.815Z,7.1
2018-05-02T04:23:33.666Z,7.1
2018-05-02T04:24:35.783Z,7.3
2018-05-02T04:25:38.736Z,7.4
2018-05-02T04:26:40.882Z,7.3
2018-05-02T04:27:43.131Z,7.3
2018-05-02T04:28:45.463Z,7.3
2018-05-02T04:29:47.608Z,7.3
2018-05-02T04:30:50.047Z,7.5
2018-05-02T04:31:52.351Z,7.5
2018-05-02T04:32:54.704Z,7.5
2018-05-02T04:33:57.077Z,7.6
2018-05-02T04:34:59.777Z,7.7
2018-05-02T04:36:02.562Z,7.7
2018-05-02T04:37:04.788Z,7.7
2018-05-02T04:38:07.403Z,7.7
2018-05-02T04:39:09.826Z,7.7
2018-05-02T04:40:12.345Z,7.7
2018-05-02T04:41:14.777Z,7.8
2018-05-02T04:42:17.344Z,7.7
2018-05-02T04:43:19.494Z,7.9
2018-05-02T04:44:23.901Z,8.0
2018-05-02T04:45:26.065Z,8.0
2018-05-02T04:46:29.039Z,8.1
2018-05-02T04:47:31.358Z,8.2
2018-05-02T04:48:34.233Z,8.2
2018-05-02T04:49:36.322Z,8.4
2018-05-02T04:50:38.608Z,8.5
2018-05-02T04:51:40.852Z,8.5
2018-05-02T04:52:43.030Z,8.6
2018-05-02T04:53:45.329Z,8.8
2018-05-02T04:54:47.839Z,8.8
2018-05-02T04:55:50.291Z,8.8
2018-05-02T04:56:53.572Z,8.8
2018-05-02T04:57:55.679Z,8.8
2018-05-02T04:58:57.879Z,8.9
2018-05-02T05:00:00.168Z,9.0
2018-05-02T05:01:03.110Z,9.0
2018-05-02T05:02:05.893Z,9.2
2018-05-02T05:03:08.193Z,9.2
2018-05-02T05:04:10.736Z,9.3
2018-05-02T05:05:13.343Z,9.4
2018-05-02T05:06:15.749Z,9.5
2018-05-02T05:07:17.891Z,9.5
2018-05-02T05:08:20.397Z,9.6
2018-05-02T05:09:22.953Z,9.6
2018-05-02T05:10:25.525Z,9.5
2018-05-02T05:11:27.766Z,9.7
2018-05-02T05:12:30.269Z,9.8
2018-05-02T05:13:32.615Z,9.8
2018-05-02T05:14:35.000Z,9.8
2018-05-02T05:15:37.274Z,9.9
2018-05-02T05:16:39.525Z,10.0
2018-05-02T05:17:41.939Z,10.1
2018-05-02T05:18:44.122Z,10.3
2018-05-02T05:19:46.538Z,10.3
2018-05-02T05:20:49.112Z,10.3
2018-05-02T05:21:51.672Z,10.6
2018-05-02T05:22:54.267Z,10.7
2018-05-02T05:23:56.406Z,10.8
2018-05-02T05:24:58.785Z,10.9
2018-05-02T05:26:00.888Z,10.8
2018-05-02T05:27:02.999Z,10.9
2018-05-02T05:28:05.348Z,10.9
2018-05-02T05:29:07.540Z,11.1
2018-05-02T05:30:09.502Z,11.2
2018-05-02T05:31:11.843Z,11.2
2018-05-02T05:32:13.854Z,11.3
2018-05-02T05:33:16.155Z,11.4
2018-05-02T05:34:18.269Z,11.5
2018-05-02T05:35:20.369Z,11.5
2018-05-02T05:36:22.469Z,11.6
2018-05-02T05:37:24.484Z,11.7
2018-05-02T05:38:26.740Z,11.4
2018-05-02T05:39:28.881Z,11.5
2018-05-02T05:40:30.906Z,11.6
2018-05-02T05:41:32.997Z,11.5
2018-05-02T05:42:35.050Z,11.5
2018-05-02T05:43:37.394Z,11.4
2018-05-02T05:44:39.456Z,11.6
2018-05-02T05:45:41.424Z,11.6
2018-05-02T05:46:43.404Z,11.5
2018-05-02T05:47:45.486Z,11.6
2018-05-02T05:48:47.542Z,11.8
2018-05-02T05:49:49.572Z,11.8
2018-05-02T05:50:51.739Z,11.9
2018-05-02T05:51:53.871Z,11.9
2018-05-02T05:52:56.061Z,12.1
2018-05-02T05:53:58.821Z,12.1
2018-05-02T05:55:00.723Z,12.1
2018-05-02T05:56:02.820Z,12.1
2018-05-02T05:57:04.994Z,12.1
2018-05-02T05:58:07.410Z,12.2
2018-05-02T05:59:09.591Z,12.2
2018-05-02T06:00:12.342Z,12.3
2018-05-02T06:01:14.480Z,12.3
2018-05-02T06:02:16.579Z,12.5
2018-05-02T06:03:18.800Z,12.6
2018-05-02T06:04:20.755Z,12.8
2018-05-02T06:05:22.933Z,13.0
2018-05-02T06:06:25.032Z,12.9
2018-05-02T06:07:27.262Z,12.9
2018-05-02T06:08:29.203Z,13.0
2018-05-02T06:09:31.349Z,13.0
2018-05-02T06:10:33.515Z,13.2
2018-05-02T06:11:35.612Z,13.2
2018-05-02T06:12:37.586Z,13.3
2018-05-02T06:13:39.779Z,13.3
2018-05-02T06:14:41.858Z,13.4
2018-05-02T06:15:44.164Z,13.6
2018-05-02T06:16:46.272Z,13.7
2018-05-02T06:17:48.452Z,14.0
2018-05-02T06:18:50.635Z,14.0
2018-05-02T06:19:52.586Z,14.0
2018-05-02T06:20:54.798Z,14.2
2018-05-02T06:21:57.022Z,14.2
2018-05-02T06:22:59.210Z,14.2
2018-05-02T06:24:01.330Z,14.3
2018-05-02T06:25:03.481Z,14.6
2018-05-02T06:26:05.843Z,14.7
2018-05-02T06:27:07.987Z,14.6
2018-05-02T06:28:10.070Z,14.6
2018-05-02T06:29:12.292Z,14.5
2018-05-02T06:30:14.445Z,14.6
2018-05-02T06:31:16.717Z,14.8
2018-05-02T06:32:18.945Z,14.9
2018-05-02T06:33:20.988Z,15.1
2018-05-02T06:34:23.499Z,15.3
2018-05-02T06:35:25.971Z,15.4
2018-05-02T06:36:28.416Z,15.5
2018-05-02T06:37:30.460Z,15.5
2018-05-02T06:38:33.308Z,15.4
2018-05-02T06:39:35.126Z,15.4
2018-05-02T06:40:37.365Z,15.3
2018-05-02T06:41:39.924Z,15.4
2018-05-02T06:42:42.185Z,15.6
2018-05-02T06:43:44.348Z,15.6
2018-05-02T06:44:46.898Z,15.7
2018-05-02T06:45:49.045Z,15.8
2018-05-02T06:46:51.360Z,15.9
2018-05-02T06:47:53.817Z,16.2
2018-05-02T06:48:56.272Z,16.2
2018-05-02T06:49:58.519Z,16.4
2018-05-02T06:51:01.139Z,16.4
2018-05-02T06:52:03.150Z,16.5
2018-05-02T06:53:05.295Z,16.4
2018-05-02T06:54:09.292Z,16.3
2018-05-02T06:55:15.646Z,16.2
2018-05-02T06:56:17.625Z,16.5
2018-05-02T06:57:19.823Z,16.6
2018-05-02T06:58:22.037Z,16.8
2018-05-02T06:59:24.214Z,16.9
2018-05-02T07:00:27.593Z,16.8
2018-05-02T07:01:29.623Z,16.9
2018-05-02T07:02:32.036Z,16.8
2018-05-02T07:03:34.156Z,16.9
2018-05-02T07:04:36.113Z,17.1
2018-05-02T07:05:38.256Z,17.2
2018-05-02T07:06:40.332Z,17.4
2018-05-02T07:07:42.640Z,17.6
2018-05-02T07:08:44.606Z,17.7
2018-05-02T07:09:46.761Z,17.7
2018-05-02T07:10:49.562Z,17.8
2018-05-02T07:11:51.785Z,17.9
2018-05-02T07:12:53.973Z,17.8
2018-05-02T07:13:56.226Z,17.8
2018-05-02T07:14:58.516Z,17.9
2018-05-02T07:16:00.653Z,18.1
2018-05-02T07:17:02.805Z,18.2
2018-05-02T07:18:04.713Z,18.3
2018-05-02T07:19:08.090Z,18.4
2018-05-02T07:20:10.197Z,18.4
2018-05-02T07:21:12.254Z,18.5
2018-05-02T07:22:16.871Z,18.6
2018-05-02T07:23:21.916Z,18.8
2018-05-02T07:24:24.126Z,18.7
2018-05-02T07:25:26.204Z,19.0
2018-05-02T07:26:28.296Z,19.1
2018-05-02T07:27:30.566Z,19.1
2018-05-02T07:28:32.857Z,19.3
2018-05-02T07:29:34.973Z,19.4
2018-05-02T07:30:36.977Z,19.6
2018-05-02T07:31:41.731Z,19.6
2018-05-02T07:32:43.789Z,19.6
2018-05-02T07:33:45.846Z,19.8
2018-05-02T07:34:48.992Z,19.7
2018-05-02T07:35:51.137Z,20.2
2018-05-02T07:36:54.797Z,20.3
2018-05-02T07:37:59.001Z,20.5
2018-05-02T07:39:01.184Z,20.7
2018-05-02T07:40:03.657Z,21.0
2018-05-02T07:41:07.361Z,21.0
2018-05-02T07:42:09.428Z,20.9
2018-05-02T07:43:12.900Z,20.6
2018-05-02T07:44:14.847Z,20.7
2018-05-02T07:45:17.466Z,20.9
2018-05-02T07:46:19.720Z,21.2
2018-05-02T07:47:21.737Z,21.5
2018-05-02T07:48:24.208Z,21.6
2018-05-02T07:49:26.333Z,21.8
2018-05-02T07:50:28.758Z,21.9
2018-05-02T07:51:32.982Z,21.9
2018-05-02T07:52:34.844Z,22.1
2018-05-02T07:53:37.095Z,22.2
2018-05-02T07:54:39.173Z,22.0
2018-05-02T07:55:41.452Z,21.7
2018-05-02T07:56:43.551Z,21.4
2018-05-02T07:57:45.594Z,21.1
2018-05-02T07:58:48.008Z,21.0
2018-05-02T07:59:50.351Z,20.6
2018-05-02T08:00:53.247Z,20.3
2018-05-02T08:01:55.477Z,20.3
2018-05-02T08:03:00.234Z,20.2
2018-05-02T08:04:02.250Z,20.5
2018-05-02T08:05:04.576Z,20.6
2018-05-02T08:06:07.118Z,20.6
2018-05-02T08:07:09.399Z,20.6
2018-05-02T08:08:12.871Z,21.0
2018-05-02T08:09:18.013Z,21.0
2018-05-02T08:10:20.195Z,21.0
2018-05-02T08:11:25.435Z,21.0
2018-05-02T08:12:27.614Z,20.7
2018-05-02T08:13:29.786Z,20.4
2018-05-02T08:14:31.952Z,20.1
2018-05-02T08:15:34.418Z,20.0
2018-05-02T08:16:36.482Z,19.8
2018-05-02T08:17:41.208Z,19.8
2018-05-02T08:18:43.139Z,19.6
2018-05-02T08:19:45.168Z,19.6
2018-05-02T08:20:47.529Z,19.7
2018-05-02T08:21:50.646Z,19.5
2018-05-02T08:22:52.663Z,19.5
2018-05-02T08:23:54.886Z,19.2
2018-05-02T08:24:57.026Z,19.0
2018-05-02T08:25:59.122Z,18.9
2018-05-02T08:27:01.172Z,19.1
2018-05-02T08:28:05.845Z,19.0
2018-05-02T08:29:08.070Z,19.0
2018-05-02T08:30:10.763Z,19.1
2018-05-02T08:31:12.839Z,19.4
2018-05-02T08:32:15.119Z,19.8
2018-05-02T08:33:17.299Z,20.1
2018-05-02T08:34:19.435Z,20.2
2018-05-02T08:35:21.684Z,20.4
2018-05-02T08:36:24.432Z,20.9
2018-05-02T08:37:27.177Z,21.2
2018-05-02T08:38:29.554Z,21.6
2018-05-02T08:39:31.672Z,21.2
2018-05-02T08:40:34.938Z,20.9
2018-05-02T08:41:37.506Z,21.0
2018-05-02T08:42:39.354Z,20.9
2018-05-02T08:43:41.667Z,21.2
2018-05-02T08:44:43.636Z,21.2
2018-05-02T08:45:45.982Z,21.2
2018-05-02T08:46:48.277Z,21.2
2018-05-02T08:47:52.922Z,21.1
2018-05-02T08:48:54.705Z,21.3
2018-05-02T08:49:56.832Z,21.4
2018-05-02T08:50:58.878Z,21.5
2018-05-02T08:52:02.987Z,21.3
2018-05-02T08:53:06.046Z,21.3
2018-05-02T08:54:08.215Z,21.6
2018-05-02T08:55:11.606Z,22.0
2018-05-02T08:56:13.850Z,22.1
2018-05-02T08:57:16.205Z,21.9
2018-05-02T08:58:18.332Z,22.3
2018-05-02T08:59:20.943Z,22.1
2018-05-02T09:00:23.194Z,21.6
2018-05-02T09:01:25.176Z,21.2
2018-05-02T09:02:27.526Z,20.9
2018-05-02T09:03:29.504Z,21.1
2018-05-02T09:04:31.649Z,21.2
2018-05-02T09:05:33.781Z,21.3
2018-05-02T09:06:35.945Z,21.8
2018-05-02T09:07:38.080Z,21.8
2018-05-02T09:08:40.384Z,21.5
2018-05-02T09:09:42.501Z,21.7
2018-05-02T09:10:44.722Z,21.5
2018-05-02T09:11:47.616Z,21.0
2018-05-02T09:12:52.003Z,20.7
2018-05-02T09:13:54.031Z,20.9
2018-05-02T09:14:58.059Z,20.9
2018-05-02T09:16:00.458Z,21.5
2018-05-02T09:17:02.635Z,21.9
2018-05-02T09:18:04.914Z,22.4
2018-05-02T09:19:07.149Z,22.7
2018-05-02T09:20:10.450Z,23.1
2018-05-02T09:21:12.958Z,22.7
2018-05-02T09:22:15.154Z,23.0
2018-05-02T09:23:16.960Z,22.8
2018-05-02T09:24:19.329Z,22.4
2018-05-02T09:25:21.645Z,22.2
2018-05-02T09:26:23.979Z,22.4
2018-05-02T09:27:26.084Z,22.8
2018-05-02T09:28:28.896Z,23.0
2018-05-02T09:29:30.986Z,22.8
2018-05-02T09:30:33.273Z,22.4
2018-05-02T09:31:35.276Z,22.4
2018-05-02T09:32:37.656Z,22.4
2018-05-02T09:33:40.010Z,22.6
2018-05-02T09:34:42.304Z,22.8
2018-05-02T09:35:44.529Z,22.9
2018-05-02T09:36:46.604Z,22.6
2018-05-02T09:37:48.806Z,22.6
2018-05-02T09:38:51.130Z,22.3
2018-05-02T09:39:53.489Z,22.5
2018-05-02T09:40:55.706Z,23.0
2018-05-02T09:41:58.237Z,23.2
2018-05-02T09:43:00.618Z,23.2
2018-05-02T09:44:03.019Z,23.2
2018-05-02T09:45:07.088Z,23.3
2018-05-02T09:46:09.246Z,23.2
2018-05-02T09:47:11.371Z,23.3
2018-05-02T09:48:13.611Z,23.2
2018-05-02T09:49:16.021Z,23.5
2018-05-02T09:50:18.208Z,23.9
2018-05-02T09:51:20.601Z,24.2
2018-05-02T09:52:22.544Z,24.4
2018-05-02T09:53:24.807Z,24.6
2018-05-02T09:54:27.094Z,24.5
2018-05-02T09:55:29.371Z,24.6
2018-05-02T09:56:31.621Z,24.2
2018-05-02T09:57:33.573Z,24.1
2018-05-02T09:58:35.529Z,24.2
2018-05-02T09:59:37.844Z,24.3
2018-05-02T10:00:40.113Z,24.5
2018-05-02T10:01:42.285Z,24.3
2018-05-02T10:02:44.661Z,24.2
2018-05-02T10:03:47.421Z,24.2
2018-05-02T10:04:49.767Z,24.5
2018-05-02T10:05:51.860Z,24.8
2018-05-02T10:06:54.261Z,25.1
2018-05-02T10:07:56.291Z,25.2
2018-05-02T10:08:58.433Z,24.7
2018-05-02T10:10:00.607Z,24.7
2018-05-02T10:11:02.699Z,24.7
2018-05-02T10:12:05.111Z,24.8
2018-05-02T10:13:07.276Z,24.8
2018-05-02T10:14:09.283Z,24.9
2018-05-02T10:15:11.156Z,25.3
2018-05-02T10:16:13.575Z,25.1
2018-05-02T10:17:16.017Z,25.3
2018-05-02T10:18:18.358Z,25.5
2018-05-02T10:19:20.606Z,25.5
2018-05-02T10:20:22.615Z,25.6
2018-05-02T10:21:24.792Z,25.9
2018-05-02T10:22:27.091Z,26.2
2018-05-02T10:23:29.852Z,25.9
2018-05-02T10:24:32.240Z,25.3
2018-05-02T10:25:34.326Z,25.2
2018-05-02T10:26:36.532Z,25.3
2018-05-02T10:27:39.139Z,25.3
2018-05-02T10:28:41.288Z,25.2
2018-05-02T10:29:43.508Z,25.3
2018-05-02T10:30:46.057Z,25.5
2018-05-02T10:31:48.331Z,26.0
2018-05-02T10:32:50.575Z,26.2
2018-05-02T10:33:53.093Z,26.0
2018-05-02T10:34:56.378Z,26.1
2018-05-02T10:35:58.545Z,25.6
2018-05-02T10:37:01.010Z,25.7
2018-05-02T10:38:03.258Z,25.9
2018-05-02T10:39:05.762Z,25.6
2018-05-02T10:40:08.030Z,25.3
2018-05-02T10:41:10.819Z,25.4
2018-05-02T10:42:13.425Z,25.5
2018-05-02T10:43:15.198Z,26.0
2018-05-02T10:44:17.307Z,25.9
2018-05-02T10:45:19.232Z,26.1
2018-05-02T10:46:21.542Z,26.1
2018-05-02T10:47:23.454Z,26.3
2018-05-02T10:48:25.412Z,26.3
2018-05-02T10:49:28.562Z,26.3
2018-05-02T10:50:30.446Z,26.4
2018-05-02T10:51:34.480Z,26.2
2018-05-02T10:52:36.208Z,26.7
2018-05-02T10:53:38.037Z,26.6
2018-05-02T10:54:39.980Z,26.5
2018-05-02T10:55:41.810Z,26.5
2018-05-02T10:56:44.012Z,26.7
2018-05-02T10:57:45.910Z,26.4
2018-05-02T10:58:48.310Z,26.1
2018-05-02T10:59:50.457Z,26.3
2018-05-02T11:00:52.293Z,26.6
2018-05-02T11:01:54.154Z,26.7
2018-05-02T11:02:55.951Z,26.7
2018-05-02T11:03:59.040Z,26.7
2018-05-02T11:05:02.483Z,26.7
2018-05-02T11:06:04.232Z,26.6
2018-05-02T11:07:06.177Z,26.7
2018-05-02T11:08:08.007Z,27.3
2018-05-02T11:09:09.886Z,27.6
2018-05-02T11:10:11.769Z,28.0
2018-05-02T11:11:14.187Z,27.8
2018-05-02T11:12:16.035Z,27.6
2018-05-02T11:13:17.853Z,27.9
2018-05-02T11:14:20.411Z,27.9
2018-05-02T11:15:22.290Z,27.4
2018-05-02T11:16:24.571Z,27.4
2018-05-02T11:17:27.229Z,27.5
2018-05-02T11:18:28.958Z,27.8
2018-05-02T11:19:31.272Z,27.7
2018-05-02T11:20:33.771Z,27.9
2018-05-02T11:21:37.261Z,27.8
2018-05-02T11:22:39.763Z,27.6
2018-05-02T11:23:42.094Z,27.4
2018-05-02T11:24:45.000Z,27.1
2018-05-02T11:25:47.115Z,27.4
2018-05-02T11:26:49.958Z,26.8
2018-05-02T11:27:52.718Z,26.3
2018-05-02T11:28:54.605Z,26.6
2018-05-02T11:29:57.155Z,26.1
2018-05-02T11:30:59.805Z,25.9
2018-05-02T11:32:02.782Z,25.7
2018-05-02T11:33:05.039Z,25.6
2018-05-02T11:34:06.788Z,25.6
2018-05-02T11:35:09.811Z,26.1
2018-05-02T11:36:11.644Z,25.9
2018-05-02T11:37:14.379Z,26.1
2018-05-02T11:38:16.296Z,26.1
2018-05-02T11:39:18.988Z,26.0
2018-05-02T11:40:20.941Z,25.9
2018-05-02T11:41:22.718Z,26.2
2018-05-02T11:42:25.497Z,26.5
2018-05-02T11:43:27.374Z,26.7
2018-05-02T11:44:29.189Z,27.2
2018-05-02T11:45:31.044Z,27.5
2018-05-02T11:46:32.898Z,27.7
2018-05-02T11:47:35.512Z,27.6
2018-05-02T11:48:37.375Z,27.2
2018-05-02T11:49:39.590Z,27.5
2018-05-02T11:50:41.506Z,27.9
2018-05-02T11:51:44.288Z,28.0
2018-05-02T11:52:46.459Z,28.0
2018-05-02T11:53:48.709Z,28.0
2018-05-02T11:54:51.047Z,28.2
2018-05-02T11:55:53.069Z,28.1
2018-05-02T11:56:55.118Z,27.8
2018-05-02T11:57:57.370Z,28.2
2018-05-02T11:58:59.475Z,28.4
2018-05-02T12:00:01.827Z,28.4
2018-05-02T12:01:03.791Z,28.6
2018-05-02T12:02:05.914Z,28.7
2018-05-02T12:03:08.609Z,28.7
2018-05-02T12:04:10.942Z,28.7
2018-05-02T12:05:12.809Z,28.6
2018-05-02T12:06:14.975Z,28.4
2018-05-02T12:07:17.198Z,28.1
2018-05-02T12:08:19.548Z,27.6
2018-05-02T12:09:22.813Z,27.5
2018-05-02T12:10:25.173Z,27.5
2018-05-02T12:11:27.655Z,27.7
2018-05-02T12:12:30.038Z,27.8
2018-05-02T12:13:32.557Z,27.6
2018-05-02T12:14:34.842Z,27.3
2018-05-02T12:15:37.776Z,27.4
2018-05-02T12:16:39.978Z,27.7
2018-05-02T12:17:42.558Z,27.7
2018-05-02T12:18:44.763Z,27.8
2018-05-02T12:19:47.098Z,27.9
2018-05-02T12:20:49.940Z,28.2
2018-05-02T12:21:52.281Z,28.1
2018-05-02T12:22:54.674Z,28.1
2018-05-02T12:23:56.716Z,28.0
2018-05-02T12:24:59.130Z,28.7
2018-05-02T12:26:01.434Z,28.8
2018-05-02T12:27:03.865Z,28.8
2018-05-02T12:28:07.024Z,28.8
2018-05-02T12:29:09.133Z,28.6
2018-05-02T12:30:11.842Z,28.6
2018-05-02T12:31:14.177Z,28.3
2018-05-02T12:32:16.487Z,28.2
2018-05-02T12:33:18.641Z,27.6
2018-05-02T12:34:21.102Z,27.4
2018-05-02T12:35:23.170Z,27.6
2018-05-02T12:36:25.315Z,27.6
2018-05-02T12:37:27.575Z,27.8
2018-05-02T12:38:29.635Z,27.8
2018-05-02T12:39:32.096Z,27.8
2018-05-02T12:40:34.331Z,27.7
2018-05-02T12:41:37.017Z,27.8
2018-05-02T12:42:39.431Z,27.8
2018-05-02T12:43:41.936Z,27.9
2018-05-02T12:44:44.424Z,28.3
2018-05-02T12:45:46.572Z,28.5
2018-05-02T12:46:49.095Z,28.5
2018-05-02T12:47:51.506Z,28.6
2018-05-02T12:48:54.074Z,28.4
2018-05-02T12:49:58.384Z,28.1
2018-05-02T12:51:00.389Z,28.0
2018-05-02T12:52:02.989Z,27.4
2018-05-02T12:53:05.441Z,27.0
2018-05-02T12:54:07.610Z,26.8
2018-05-02T12:55:09.795Z,27.0
2018-05-02T12:56:12.265Z,27.1
2018-05-02T12:57:14.332Z,27.2
2018-05-02T12:58:16.297Z,26.6
2018-05-02T12:59:18.505Z,26.2
2018-05-02T13:00:21.899Z,25.9
2018-05-02T13:01:24.745Z,26.2
2018-05-02T13:02:26.951Z,26.0
2018-05-02T13:03:28.885Z,26.2
2018-05-02T13:04:32.168Z,26.2
2018-05-02T13:05:34.704Z,26.1
2018-05-02T13:06:36.814Z,26.1
2018-05-02T13:07:39.425Z,26.0
2018-05-02T13:08:41.621Z,26.1
2018-05-02T13:09:43.626Z,26.0
2018-05-02T13:10:45.657Z,25.9
2018-05-02T13:11:47.764Z,25.9
2018-05-02T13:12:49.923Z,26.1
2018-05-02T13:13:51.973Z,26.0
2018-05-02T13:14:54.107Z,26.0
2018-05-02T13:15:56.081Z,25.9
2018-05-02T13:16:58.163Z,25.8
2018-05-02T13:18:00.247Z,25.6
2018-05-02T13:19:02.159Z,25.5
2018-05-02T13:20:04.106Z,25.3
2018-05-02T13:21:06.119Z,25.0
2018-05-02T13:22:08.246Z,25.0
2018-05-02T13:23:10.380Z,24.8
2018-05-02T13:24:12.233Z,24.9
2018-05-02T13:25:14.277Z,24.8
2018-05-02T13:26:17.590Z,24.9
2018-05-02T13:27:19.706Z,25.0
2018-05-02T13:28:21.661Z,25.2
2018-05-02T13:29:23.622Z,25.1
2018-05-02T13:30:25.486Z,25.0
2018-05-02T13:31:27.793Z,25.1
2018-05-02T13:32:29.555Z,25.2
2018-05-02T13:33:31.522Z,25.2
2018-05-02T13:34:33.439Z,25.3
2018-05-02T13:35:34.872Z,25.4
2018-05-02T13:36:36.628Z,25.4
2018-05-02T13:37:38.375Z,25.5
2018-05-02T13:38:40.663Z,25.6
2018-05-02T13:39:42.920Z,25.6
2018-05-02T13:40:46.185Z,25.9
2018-05-02T13:41:48.330Z,25.9
2018-05-02T13:42:50.705Z,26.0
2018-05-02T13:43:52.793Z,26.3
2018-05-02T13:44:54.908Z,26.1
2018-05-02T13:45:57.560Z,25.8
2018-05-02T13:46:59.659Z,25.6
2018-05-02T13:48:01.584Z,25.6
2018-05-02T13:49:04.155Z,26.0
2018-05-02T13:50:06.226Z,25.6
2018-05-02T13:51:08.271Z,25.6
2018-05-02T13:52:10.371Z,25.5
2018-05-02T13:53:12.407Z,25.6
2018-05-02T13:54:14.433Z,25.6
2018-05-02T13:55:16.599Z,25.6
2018-05-02T13:56:18.572Z,25.2
2018-05-02T13:57:22.784Z,25.2
2018-05-02T13:58:24.611Z,25.3
2018-05-02T13:59:26.659Z,25.1
2018-05-02T14:00:30.706Z,24.9